Time;durP1;ratioP1;P1;durP2;ratioP2;P2;SDS_P1;SDS_P2;PMS_P1;PMS_P2;Temp;Humidity;BMP_temperature;BMP_pressure;BME280_temperature;BME280_humidity;BME280_pressure;Samples;Min_cycle;Max_cycle;Signal;HPM_P1;HPM_P2
2023/12/16 00:00:42;;;;;;;21.23;7.82;;;6.00;99.90;;;;;;5033345;28;20037;-60
2023/12/16 00:03:07;;;;;;;19.23;7.75;;;6.00;99.90;;;;;;5039757;28;20094;-55
2023/12/16 00:05:33;;;;;;;24.75;8.70;;;6.10;99.90;;;;;;5034013;28;20030;-56
2023/12/16 00:07:58;;;;;;;29.50;10.90;;;6.00;99.90;;;;;;5022748;28;20780;-51
2023/12/16 00:10:24;;;;;;;27.30;9.63;;;6.00;99.90;;;;;;5035627;28;20029;-55
2023/12/16 00:12:49;;;;;;;26.55;8.25;;;6.00;99.90;;;;;;5036782;28;20017;-56
2023/12/16 00:15:15;;;;;;;26.98;9.25;;;6.00;99.90;;;;;;5035475;28;20032;-51
2023/12/16 00:17:41;;;;;;;20.35;8.43;;;6.00;99.90;;;;;;5020672;28;20065;-51
2023/12/16 00:20:07;;;;;;;19.90;8.68;;;6.00;99.90;;;;;;5034861;28;20049;-54
2023/12/16 00:22:33;;;;;;;24.63;7.70;;;6.00;99.90;;;;;;5032876;28;20033;-51
2023/12/16 00:24:58;;;;;;;26.70;7.88;;;6.00;99.90;;;;;;5018576;28;20027;-53
2023/12/16 00:27:24;;;;;;;26.02;10.82;;;6.00;99.90;;;;;;5038229;28;21218;-61
2023/12/16 00:29:50;;;;;;;29.27;10.57;;;6.00;99.90;;;;;;5026889;28;20036;-55
2023/12/16 00:32:17;;;;;;;32.65;10.70;;;6.00;99.90;;;;;;5031492;28;20045;-56
2023/12/16 00:34:43;;;;;;;31.20;10.57;;;6.00;99.90;;;;;;5033125;28;20185;-54
2023/12/16 00:37:08;;;;;;;36.53;11.48;;;6.00;99.90;;;;;;5037500;28;20099;-55
2023/12/16 00:39:34;;;;;;;26.52;9.68;;;6.00;99.90;;;;;;5035018;28;20041;-58
2023/12/16 00:41:59;;;;;;;23.58;8.43;;;6.00;99.90;;;;;;5030169;28;20041;-51
2023/12/16 00:44:25;;;;;;;23.60;6.78;;;6.00;99.90;;;;;;5031393;28;20041;-51
2023/12/16 00:50:13;;;;;;;17.40;7.75;;;6.00;99.90;;;;;;5031660;28;20106;-53
2023/12/16 00:52:38;;;;;;;27.42;8.20;;;6.00;99.90;;;;;;5034575;28;20037;-55
2023/12/16 00:55:05;;;;;;;16.77;6.03;;;6.00;99.90;;;;;;5026486;28;20025;-51
2023/12/16 00:57:31;;;;;;;20.10;7.38;;;6.00;99.90;;;;;;5030762;28;20043;-58
2023/12/16 00:59:57;;;;;;;17.38;6.80;;;6.00;99.90;;;;;;5022054;28;20025;-51
2023/12/16 01:02:22;;;;;;;19.17;7.53;;;6.00;99.90;;;;;;5036227;28;20410;-51
2023/12/16 01:04:48;;;;;;;23.83;8.27;;;5.90;99.90;;;;;;5034612;28;20017;-52
2023/12/16 01:07:13;;;;;;;18.75;6.90;;;6.00;99.90;;;;;;5027730;28;20021;-54
2023/12/16 01:09:39;;;;;;;18.10;7.28;;;5.90;99.90;;;;;;5034969;28;20057;-50
2023/12/16 01:12:05;;;;;;;21.02;7.50;;;5.90;99.90;;;;;;5047853;22;20056;-49
2023/12/16 01:14:31;;;;;;;20.67;9.35;;;5.90;99.90;;;;;;5015893;28;20506;-49
2023/12/16 01:16:56;;;;;;;20.67;8.07;;;6.00;99.90;;;;;;5022911;28;20045;-48
2023/12/16 01:19:22;;;;;;;22.40;7.32;;;5.90;99.90;;;;;;5026624;28;20033;-50
2023/12/16 01:21:47;;;;;;;21.42;6.82;;;5.90;99.90;;;;;;5031337;28;20030;-48
2023/12/16 01:24:13;;;;;;;15.48;6.75;;;6.00;99.90;;;;;;5019152;28;20387;-52
2023/12/16 01:26:38;;;;;;;16.88;6.07;;;5.90;99.90;;;;;;5019600;28;20395;-50
2023/12/16 01:29:04;;;;;;;18.80;5.13;;;5.90;99.90;;;;;;5019013;28;22007;-48
2023/12/16 01:31:29;;;;;;;19.05;6.10;;;5.90;99.90;;;;;;5022102;28;20034;-46
2023/12/16 01:33:55;;;;;;;18.13;6.22;;;5.90;99.90;;;;;;5020340;28;20032;-47
2023/12/16 01:36:22;;;;;;;17.67;5.97;;;5.90;99.90;;;;;;5019533;28;20037;-50
2023/12/16 01:38:48;;;;;;;20.35;6.40;;;6.00;99.90;;;;;;5019374;28;20026;-50
2023/12/16 01:41:13;;;;;;;16.42;5.93;;;5.90;99.90;;;;;;5021040;28;20044;-51
2023/12/16 01:43:39;;;;;;;25.52;5.78;;;5.90;99.90;;;;;;5021513;28;20029;-47
2023/12/16 01:46:05;;;;;;;19.15;5.82;;;5.90;99.90;;;;;;5021954;28;20118;-48
2023/12/16 01:48:32;;;;;;;20.45;6.10;;;5.90;99.90;;;;;;5020685;28;20096;-51
2023/12/16 01:50:58;;;;;;;18.05;6.55;;;5.90;99.90;;;;;;5011641;28;20042;-50
2023/12/16 01:53:26;;;;;;;17.52;6.50;;;5.90;99.90;;;;;;5020991;28;20387;-47
2023/12/16 01:55:52;;;;;;;16.77;6.03;;;5.90;99.90;;;;;;5023119;28;20052;-48
2023/12/16 01:58:18;;;;;;;23.33;5.88;;;5.90;99.90;;;;;;5020267;28;20118;-50
2023/12/16 02:00:45;;;;;;;19.13;6.03;;;5.90;99.90;;;;;;5019817;28;20455;-51
2023/12/16 02:03:12;;;;;;;19.13;5.00;;;5.90;99.90;;;;;;5020682;28;20562;-48
2023/12/16 02:05:38;;;;;;;21.27;6.72;;;5.90;99.90;;;;;;5022407;28;20151;-47
2023/12/16 02:08:04;;;;;;;22.30;7.18;;;5.90;99.90;;;;;;5024636;28;20491;-49
2023/12/16 02:10:30;;;;;;;18.48;6.45;;;5.90;99.90;;;;;;5018473;28;20410;-48
2023/12/16 02:12:55;;;;;;;23.63;6.47;;;5.90;99.90;;;;;;5018838;28;20029;-46
2023/12/16 02:15:21;;;;;;;21.00;6.95;;;5.90;99.90;;;;;;5021441;28;20032;-46
2023/12/16 02:17:47;;;;;;;15.77;5.60;;;5.90;99.90;;;;;;5022953;28;20033;-47
2023/12/16 02:20:14;;;;;;;14.07;4.95;;;5.80;99.90;;;;;;5021841;28;20573;-46
2023/12/16 02:22:40;;;;;;;13.52;5.38;;;5.90;99.90;;;;;;5019669;28;20436;-49
2023/12/16 02:25:09;;;;;;;21.50;6.20;;;5.90;99.90;;;;;;5019222;28;20136;-46
2023/12/16 02:27:35;;;;;;;26.70;5.32;;;5.80;99.90;;;;;;5022326;28;20014;-47
2023/12/16 02:30:00;;;;;;;15.52;5.55;;;5.80;99.90;;;;;;5018560;28;20113;-48
2023/12/16 02:32:26;;;;;;;23.48;6.38;;;5.80;99.90;;;;;;5020075;28;20065;-53
2023/12/16 02:34:51;;;;;;;21.05;6.78;;;5.80;99.90;;;;;;5020185;28;20381;-50
2023/12/16 02:37:17;;;;;;;18.10;5.97;;;5.80;99.90;;;;;;5020027;28;20081;-49
2023/12/16 02:39:42;;;;;;;16.02;5.25;;;5.80;99.90;;;;;;5019306;28;20033;-49
2023/12/16 02:42:08;;;;;;;13.93;5.22;;;5.80;99.90;;;;;;5020496;28;20472;-47
2023/12/16 02:44:34;;;;;;;15.38;5.63;;;5.80;99.90;;;;;;5019704;28;20491;-50
2023/12/16 02:46:59;;;;;;;13.90;6.75;;;5.80;99.90;;;;;;5020956;28;20041;-50
2023/12/16 02:49:27;;;;;;;18.08;5.15;;;5.80;99.90;;;;;;5020421;28;20040;-47
2023/12/16 02:51:53;;;;;;;16.52;4.97;;;5.80;99.90;;;;;;5023043;28;20026;-50
2023/12/16 02:54:18;;;;;;;21.02;5.85;;;5.80;99.90;;;;;;5019155;28;20029;-54
2023/12/16 02:56:44;;;;;;;13.23;5.13;;;5.80;99.90;;;;;;5021049;28;20052;-51
2023/12/16 02:59:09;;;;;;;16.17;5.07;;;5.80;99.90;;;;;;5018507;28;20084;-50
2023/12/16 03:01:35;;;;;;;16.75;6.03;;;5.80;99.90;;;;;;5021171;28;20033;-47
2023/12/16 03:04:01;;;;;;;11.93;5.07;;;5.80;99.90;;;;;;5019886;28;20026;-47
2023/12/16 03:06:26;;;;;;;15.65;5.43;;;5.80;99.90;;;;;;5020991;28;20038;-46
2023/12/16 03:08:52;;;;;;;14.48;4.68;;;5.70;99.90;;;;;;5020296;28;20644;-54
2023/12/16 03:11:17;;;;;;;16.77;5.50;;;5.70;99.90;;;;;;5017349;28;20498;-46
2023/12/16 03:13:43;;;;;;;15.27;5.45;;;5.70;99.90;;;;;;5020209;28;20084;-50
2023/12/16 03:16:10;;;;;;;19.83;4.88;;;5.70;99.90;;;;;;5019696;28;20037;-46
2023/12/16 03:18:36;;;;;;;17.88;4.85;;;5.70;99.90;;;;;;5010887;28;20049;-52
2023/12/16 03:21:05;;;;;;;19.23;5.40;;;5.70;99.90;;;;;;5021736;28;20029;-51
2023/12/16 03:23:30;;;;;;;20.45;5.45;;;5.80;99.90;;;;;;5019733;28;20036;-50
2023/12/16 03:25:56;;;;;;;12.07;4.82;;;5.70;99.90;;;;;;5020671;28;20038;-47
2023/12/16 03:28:21;;;;;;;16.40;6.38;;;5.70;99.90;;;;;;5018420;28;20053;-49
2023/12/16 03:30:47;;;;;;;19.55;5.38;;;5.70;99.90;;;;;;5020188;28;20546;-46
2023/12/16 03:33:13;;;;;;;18.05;4.85;;;5.70;99.90;;;;;;5020277;28;20049;-46
2023/12/16 03:35:38;;;;;;;13.43;4.63;;;5.70;99.90;;;;;;5018982;28;20030;-48
2023/12/16 03:38:04;;;;;;;18.48;5.43;;;5.70;99.90;;;;;;5020553;28;20049;-49
2023/12/16 03:40:30;;;;;;;13.70;5.55;;;5.70;99.90;;;;;;5017856;28;20037;-47
2023/12/16 03:42:56;;;;;;;14.85;5.18;;;5.70;99.90;;;;;;5028173;28;20117;-50
2023/12/16 03:45:22;;;;;;;18.80;5.13;;;5.70;99.90;;;;;;5017177;28;20089;-51
2023/12/16 03:47:48;;;;;;;16.95;4.20;;;5.70;99.90;;;;;;5018391;28;20025;-48
2023/12/16 03:50:14;;;;;;;17.60;4.07;;;5.70;99.90;;;;;;5019551;28;20040;-49
2023/12/16 03:52:39;;;;;;;16.20;5.50;;;5.70;99.90;;;;;;5016064;28;20100;-49
2023/12/16 03:55:05;;;;;;;13.23;3.90;;;5.70;99.90;;;;;;5019025;28;20400;-49
2023/12/16 03:57:32;;;;;;;10.20;4.32;;;5.70;99.90;;;;;;5020379;28;20065;-50
2023/12/16 03:59:58;;;;;;;14.30;3.80;;;5.70;99.90;;;;;;5020141;28;20144;-48
2023/12/16 04:02:24;;;;;;;13.35;4.50;;;5.70;99.90;;;;;;5024270;28;20148;-52
2023/12/16 04:04:49;;;;;;;14.18;3.58;;;5.60;99.90;;;;;;5020641;28;20095;-50
2023/12/16 04:07:15;;;;;;;17.40;3.20;;;5.70;99.90;;;;;;5017827;28;20037;-48
2023/12/16 04:09:41;;;;;;;11.48;3.97;;;5.70;99.90;;;;;;5018905;28;20036;-50
2023/12/16 04:12:07;;;;;;;15.50;3.75;;;5.70;99.90;;;;;;5018211;28;20021;-46
2023/12/16 04:14:41;;;;;;;11.55;3.70;;;5.70;99.90;;;;;;5019954;28;20026;-48
2023/12/16 04:17:07;;;;;;;9.40;3.58;;;5.70;99.90;;;;;;5017585;28;20030;-46
2023/12/16 04:19:33;;;;;;;10.25;3.17;;;5.70;99.90;;;;;;5016071;28;20096;-49
2023/12/16 04:21:59;;;;;;;16.25;3.58;;;5.70;99.90;;;;;;5019495;28;20033;-46
2023/12/16 04:24:24;;;;;;;13.65;3.88;;;5.70;99.90;;;;;;5018640;28;20026;-48
2023/12/16 04:26:50;;;;;;;14.30;3.70;;;5.70;99.90;;;;;;5017238;28;20487;-51
2023/12/16 04:29:16;;;;;;;20.10;3.50;;;5.70;99.90;;;;;;5015801;28;20050;-46
2023/12/16 04:31:41;;;;;;;15.27;3.90;;;5.70;99.90;;;;;;5019286;28;20186;-50
2023/12/16 04:34:07;;;;;;;9.90;3.42;;;5.70;99.90;;;;;;5018593;28;20034;-47
2023/12/16 04:36:33;;;;;;;13.63;5.00;;;5.70;99.90;;;;;;5020513;28;20093;-47
2023/12/16 04:38:59;;;;;;;15.07;4.93;;;5.70;99.90;;;;;;5019415;28;20052;-49
2023/12/16 04:41:25;;;;;;;13.38;4.53;;;5.70;99.90;;;;;;4999193;28;20033;-48
2023/12/16 04:43:53;;;;;;;11.43;3.95;;;5.70;99.90;;;;;;5017248;28;20032;-49
2023/12/16 04:46:21;;;;;;;12.07;4.03;;;5.70;99.90;;;;;;5016459;28;20592;-47
2023/12/16 04:48:47;;;;;;;9.52;4.15;;;5.70;99.90;;;;;;5019474;28;20034;-49
2023/12/16 04:51:12;;;;;;;22.38;5.80;;;5.70;99.90;;;;;;5018411;28;20037;-48
2023/12/16 04:53:38;;;;;;;16.05;3.90;;;5.70;99.90;;;;;;5017340;28;20087;-49
2023/12/16 04:56:04;;;;;;;8.55;4.07;;;5.70;99.90;;;;;;5016392;28;20037;-48
2023/12/16 04:58:30;;;;;;;8.50;3.45;;;5.70;99.90;;;;;;5017621;28;20052;-51
2023/12/16 05:00:55;;;;;;;12.82;3.60;;;5.70;99.90;;;;;;5017173;28;20029;-47
2023/12/16 05:03:21;;;;;;;10.93;3.55;;;5.70;99.90;;;;;;5023552;28;20650;-49
2023/12/16 05:05:46;;;;;;;15.88;4.05;;;5.70;99.90;;;;;;5021505;28;20044;-46
2023/12/16 05:08:14;;;;;;;9.88;3.45;;;5.70;99.90;;;;;;5018967;28;20448;-53
2023/12/16 05:10:39;;;;;;;15.43;4.07;;;5.70;99.90;;;;;;5017485;28;20066;-51
2023/12/16 05:13:09;;;;;;;20.75;3.63;;;5.60;99.90;;;;;;5016383;28;20444;-47
2023/12/16 05:15:36;;;;;;;18.58;3.65;;;5.70;99.90;;;;;;5018578;28;20600;-51
2023/12/16 05:18:02;;;;;;;15.80;5.18;;;5.60;99.90;;;;;;5006213;28;20045;-53
2023/12/16 05:20:28;;;;;;;17.08;3.58;;;5.70;99.90;;;;;;5015128;28;20030;-46
2023/12/16 05:22:53;;;;;;;9.32;4.00;;;5.70;99.90;;;;;;5016935;28;20040;-47
2023/12/16 05:25:19;;;;;;;9.82;3.40;;;5.70;99.90;;;;;;5016062;28;20033;-47
2023/12/16 05:27:44;;;;;;;12.40;3.47;;;5.70;99.90;;;;;;5019301;28;20402;-49
2023/12/16 05:30:11;;;;;;;9.25;3.47;;;5.60;99.90;;;;;;5001501;28;20049;-49
2023/12/16 05:32:37;;;;;;;8.98;2.45;;;5.70;99.90;;;;;;5016210;28;20038;-49
2023/12/16 05:35:03;;;;;;;11.07;2.92;;;5.70;99.90;;;;;;5015359;28;20073;-48
2023/12/16 05:37:28;;;;;;;9.93;2.70;;;5.70;99.90;;;;;;5016800;28;20400;-48
2023/12/16 05:39:54;;;;;;;7.18;3.10;;;5.70;99.90;;;;;;5016434;28;20034;-49
2023/12/16 05:42:19;;;;;;;12.82;4.18;;;5.70;99.90;;;;;;5033710;28;20090;-50
2023/12/16 05:44:45;;;;;;;12.27;2.97;;;5.80;99.90;;;;;;5023280;28;20033;-50
2023/12/16 05:47:11;;;;;;;9.07;3.05;;;5.80;99.90;;;;;;5017048;28;20087;-49
2023/12/16 05:49:36;;;;;;;10.57;2.78;;;5.70;99.90;;;;;;5017667;28;20498;-47
2023/12/16 05:52:02;;;;;;;9.13;2.90;;;5.80;99.90;;;;;;5016772;28;20116;-51
2023/12/16 05:54:28;;;;;;;10.00;3.95;;;5.80;99.90;;;;;;5016707;28;20034;-50
2023/12/16 05:56:54;;;;;;;8.40;2.47;;;5.80;99.90;;;;;;5017676;28;20650;-46
2023/12/16 05:59:20;;;;;;;11.38;3.33;;;5.80;99.90;;;;;;5032108;28;20395;-50
2023/12/16 06:01:46;;;;;;;14.85;2.88;;;5.80;99.90;;;;;;5020952;28;20033;-46
2023/12/16 06:04:11;;;;;;;7.95;2.55;;;5.80;99.90;;;;;;5015490;28;20036;-46
2023/12/16 06:06:37;;;;;;;10.18;2.90;;;5.70;99.90;;;;;;5020443;28;21389;-53
2023/12/16 06:09:02;;;;;;;9.85;3.63;;;5.70;99.90;;;;;;5019304;28;20030;-49
2023/12/16 06:11:28;;;;;;;6.10;2.25;;;5.80;99.90;;;;;;5018055;28;20036;-46
2023/12/16 06:13:54;;;;;;;12.25;2.92;;;5.80;99.90;;;;;;5019002;28;20083;-47
2023/12/16 06:16:19;;;;;;;13.35;2.97;;;5.80;99.90;;;;;;5021596;28;20140;-51
2023/12/16 06:18:46;;;;;;;10.48;3.13;;;5.80;99.90;;;;;;5015146;28;20558;-49
2023/12/16 06:21:12;;;;;;;11.13;2.88;;;5.70;99.90;;;;;;5018327;28;20034;-46
2023/12/16 06:23:38;;;;;;;9.60;2.35;;;5.70;99.90;;;;;;5019014;28;20041;-46
2023/12/16 06:26:04;;;;;;;12.07;2.92;;;5.70;99.90;;;;;;5019896;28;20026;-51
2023/12/16 06:28:29;;;;;;;15.13;2.60;;;5.80;99.90;;;;;;5024790;28;20100;-51
2023/12/16 06:30:55;;;;;;;9.73;3.40;;;5.80;99.90;;;;;;5025374;28;20078;-45
2023/12/16 06:33:23;;;;;;;17.52;6.57;;;5.80;99.90;;;;;;5031793;28;20116;-46
2023/12/16 06:35:49;;;;;;;62.60;24.30;;;5.80;99.90;;;;;;5024697;28;20042;-47
2023/12/16 06:38:15;;;;;;;63.72;27.35;;;5.80;99.90;;;;;;5020758;28;20053;-47
2023/12/16 06:40:41;;;;;;;65.60;26.88;;;5.80;99.90;;;;;;5035831;28;20056;-52
2023/12/16 06:43:07;;;;;;;57.38;20.48;;;5.80;99.90;;;;;;5022487;28;20049;-46
2023/12/16 06:45:33;;;;;;;46.15;17.85;;;5.80;99.90;;;;;;5016657;28;20057;-48
2023/12/16 06:47:59;;;;;;;35.10;13.50;;;5.80;99.90;;;;;;5019356;28;20033;-51
2023/12/16 06:50:25;;;;;;;20.10;10.38;;;5.80;99.90;;;;;;5024545;28;20117;-48
2023/12/16 06:52:50;;;;;;;18.98;8.10;;;5.80;99.90;;;;;;5018922;28;20515;-49
2023/12/16 06:55:16;;;;;;;20.60;6.32;;;5.80;99.90;;;;;;5019681;28;20387;-46
2023/12/16 06:57:42;;;;;;;16.52;5.50;;;5.80;99.90;;;;;;5021789;28;20034;-50
2023/12/16 07:00:09;;;;;;;17.95;5.95;;;5.70;99.90;;;;;;5019261;28;20060;-51
2023/12/16 07:02:36;;;;;;;14.95;4.78;;;5.80;99.90;;;;;;5025367;28;20018;-50
2023/12/16 07:05:02;;;;;;;10.07;3.42;;;5.80;99.90;;;;;;5020007;28;20104;-48
2023/12/16 07:07:28;;;;;;;11.23;3.90;;;5.80;99.90;;;;;;5017400;28;20032;-46
2023/12/16 07:09:54;;;;;;;20.13;3.80;;;5.80;99.90;;;;;;5019466;28;20034;-46
2023/12/16 07:12:19;;;;;;;12.48;3.83;;;5.80;99.90;;;;;;5017244;28;20064;-49
2023/12/16 07:14:45;;;;;;;20.40;2.97;;;5.80;99.90;;;;;;5020299;28;20125;-49
2023/12/16 07:17:10;;;;;;;16.95;3.63;;;5.80;99.90;;;;;;5017071;28;20040;-48
2023/12/16 07:19:36;;;;;;;9.70;3.40;;;5.80;99.90;;;;;;5015823;28;20050;-50
2023/12/16 07:22:02;;;;;;;24.70;8.50;;;5.80;99.90;;;;;;5008190;28;20077;-48
2023/12/16 07:24:28;;;;;;;32.22;14.30;;;5.80;99.90;;;;;;5036285;28;20099;-49
2023/12/16 07:26:54;;;;;;;35.63;14.70;;;5.80;99.90;;;;;;5022268;28;20037;-47
2023/12/16 07:29:20;;;;;;;30.45;13.88;;;5.90;99.90;;;;;;5018820;28;20025;-47
2023/12/16 07:31:50;;;;;;;20.05;9.00;;;5.80;99.90;;;;;;5019068;28;20045;-50
2023/12/16 07:34:16;;;;;;;13.02;6.05;;;5.80;99.90;;;;;;5017511;28;20140;-46
2023/12/16 07:36:42;;;;;;;14.15;5.18;;;5.80;99.90;;;;;;5018346;28;20033;-48
2023/12/16 07:39:08;;;;;;;14.50;4.63;;;5.90;99.90;;;;;;5018623;28;20041;-48
2023/12/16 07:41:34;;;;;;;17.13;3.92;;;5.90;99.90;;;;;;5024946;28;20084;-48
2023/12/16 07:44:01;;;;;;;8.82;3.53;;;5.90;99.90;;;;;;5021247;28;20043;-46
2023/12/16 07:46:26;;;;;;;13.57;4.47;;;5.90;99.90;;;;;;5018088;28;20044;-46
2023/12/16 07:48:52;;;;;;;8.85;3.45;;;5.90;99.90;;;;;;5017051;28;20022;-49
2023/12/16 07:51:25;;;;;;;12.45;4.30;;;5.90;99.90;;;;;;5015971;28;20033;-46
2023/12/16 07:53:51;;;;;;;12.18;3.55;;;5.90;99.90;;;;;;5017562;28;20430;-48
2023/12/16 07:56:22;;;;;;;12.23;3.38;;;5.90;99.90;;;;;;5023883;28;20038;-46
2023/12/16 07:58:48;;;;;;;9.32;3.10;;;5.90;99.90;;;;;;5023311;28;20391;-49
2023/12/16 08:01:14;;;;;;;11.73;3.25;;;6.00;99.90;;;;;;5016789;28;20431;-47
2023/12/16 08:03:40;;;;;;;10.30;3.15;;;6.00;99.90;;;;;;5017753;28;20040;-49
2023/12/16 08:06:06;;;;;;;19.38;4.45;;;6.10;99.90;;;;;;5018881;28;20479;-53
2023/12/16 08:08:32;;;;;;;15.18;3.75;;;6.10;99.90;;;;;;5018682;28;20118;-46
2023/12/16 08:10:57;;;;;;;10.70;3.28;;;6.10;99.90;;;;;;5016608;28;20115;-46
2023/12/16 08:13:23;;;;;;;9.45;4.13;;;6.10;99.90;;;;;;5016804;28;20735;-48
2023/12/16 08:15:49;;;;;;;7.32;2.75;;;6.10;99.90;;;;;;5015974;28;20041;-49
2023/12/16 08:18:15;;;;;;;8.43;2.88;;;6.20;99.90;;;;;;5017312;28;20105;-50
2023/12/16 08:20:41;;;;;;;10.07;3.53;;;6.20;99.90;;;;;;5006976;28;20139;-46
2023/12/16 08:23:08;;;;;;;7.80;3.17;;;6.30;99.90;;;;;;5016109;28;20038;-48
2023/12/16 08:25:35;;;;;;;8.98;2.75;;;6.30;99.90;;;;;;5016718;28;20034;-51
2023/12/16 08:28:01;;;;;;;10.13;3.28;;;6.40;99.90;;;;;;5015405;28;20080;-49
2023/12/16 08:30:26;;;;;;;12.57;3.03;;;6.40;99.90;;;;;;5016582;28;20030;-47
2023/12/16 08:32:53;;;;;;;9.30;3.10;;;6.50;99.90;;;;;;5014888;28;20044;-48
2023/12/16 08:35:18;;;;;;;9.27;3.25;;;6.50;99.90;;;;;;5014902;28;20072;-51
2023/12/16 08:37:44;;;;;;;9.45;2.92;;;6.50;99.90;;;;;;5018278;28;20045;-49
2023/12/16 08:40:10;;;;;;;13.23;3.42;;;6.60;99.90;;;;;;5016466;28;20036;-49
2023/12/16 08:42:36;;;;;;;20.92;3.45;;;6.70;99.90;;;;;;5015591;28;20621;-47
2023/12/16 08:45:02;;;;;;;8.80;3.20;;;6.60;99.90;;;;;;5016342;28;20021;-50
2023/12/16 08:47:28;;;;;;;8.13;2.70;;;6.70;99.90;;;;;;5016988;28;20487;-48
2023/12/16 08:49:55;;;;;;;9.38;2.60;;;6.70;99.90;;;;;;5013862;28;20042;-49
2023/12/16 08:52:21;;;;;;;8.43;2.83;;;6.80;99.90;;;;;;5017405;28;20081;-48
2023/12/16 08:54:46;;;;;;;15.60;3.42;;;6.80;99.90;;;;;;5016212;28;20145;-50
2023/12/16 08:57:12;;;;;;;8.10;2.90;;;6.80;99.90;;;;;;5017584;28;20029;-51
2023/12/16 08:59:38;;;;;;;13.63;3.40;;;6.80;99.90;;;;;;5018149;28;20053;-47
2023/12/16 09:02:05;;;;;;;7.53;2.78;;;6.90;99.90;;;;;;5016506;28;20069;-49
2023/12/16 09:04:30;;;;;;;8.13;2.92;;;7.00;99.90;;;;;;5014846;28;20103;-50
2023/12/16 09:06:56;;;;;;;8.50;2.92;;;7.00;99.90;;;;;;5015064;28;20530;-49
2023/12/16 09:09:22;;;;;;;10.80;2.78;;;7.10;99.90;;;;;;5016713;28;20038;-49
2023/12/16 09:11:48;;;;;;;7.57;3.88;;;7.10;99.90;;;;;;5014665;28;20032;-46
2023/12/16 09:14:14;;;;;;;20.30;9.07;;;7.10;99.90;;;;;;5015337;28;20069;-47
2023/12/16 09:16:40;;;;;;;14.32;3.92;;;7.20;99.90;;;;;;5016025;28;20021;-50
2023/12/16 09:19:07;;;;;;;12.73;3.28;;;7.30;99.90;;;;;;5015405;28;20034;-48
2023/12/16 09:21:33;;;;;;;8.10;3.72;;;7.40;99.90;;;;;;5014826;28;20037;-49
2023/12/16 09:23:59;;;;;;;10.75;3.00;;;7.50;99.90;;;;;;5014575;28;20068;-49
2023/12/16 09:26:25;;;;;;;8.02;3.15;;;7.60;99.90;;;;;;5014984;28;20064;-48
2023/12/16 09:28:51;;;;;;;11.15;3.03;;;7.70;99.90;;;;;;5014602;28;20034;-53
2023/12/16 09:31:17;;;;;;;13.73;2.90;;;7.90;99.90;;;;;;5015524;28;20030;-50
2023/12/16 09:33:45;;;;;;;9.93;3.08;;;8.00;99.90;;;;;;5014675;28;20700;-46
2023/12/16 09:36:14;;;;;;;14.30;2.97;;;8.10;99.90;;;;;;5016163;28;20026;-48
2023/12/16 09:38:43;;;;;;;8.68;2.58;;;8.20;99.90;;;;;;5015236;28;20468;-50
2023/12/16 09:41:22;;;;;;;17.48;3.58;;;8.30;99.90;;;;;;5018906;28;20668;-46
2023/12/16 09:43:53;;;;;;;7.50;2.55;;;8.40;99.90;;;;;;5018297;28;20049;-49
2023/12/16 09:46:23;;;;;;;12.60;3.28;;;8.40;99.90;;;;;;5018784;28;20029;-48
2023/12/16 09:48:50;;;;;;;6.90;2.63;;;8.60;99.90;;;;;;5019036;28;20419;-46
2023/12/16 09:51:16;;;;;;;28.83;4.05;;;8.50;99.90;;;;;;5018584;28;20490;-47
2023/12/16 09:53:42;;;;;;;7.60;3.13;;;8.50;99.90;;;;;;5019577;28;20053;-47
2023/12/16 09:56:10;;;;;;;12.27;3.35;;;8.70;99.90;;;;;;5019956;28;20041;-46
2023/12/16 09:58:36;;;;;;;9.07;2.97;;;8.70;99.90;;;;;;5020699;28;20056;-46
2023/12/16 10:01:04;;;;;;;19.80;4.22;;;8.70;99.90;;;;;;5023133;28;20105;-46
2023/12/16 10:03:30;;;;;;;15.43;4.43;;;8.60;99.90;;;;;;5026495;28;20384;-49
2023/12/16 10:05:56;;;;;;;12.57;3.25;;;8.60;99.90;;;;;;5020581;28;20032;-48
2023/12/16 10:08:22;;;;;;;13.98;4.07;;;8.60;99.90;;;;;;5022340;28;20032;-48
2023/12/16 10:10:48;;;;;;;10.20;3.30;;;8.50;99.90;;;;;;5020619;28;20524;-46
2023/12/16 10:13:13;;;;;;;13.77;4.93;;;8.50;99.90;;;;;;5023131;28;20030;-50
2023/12/16 10:15:40;;;;;;;14.68;4.60;;;8.60;99.90;;;;;;5026879;28;20034;-49
2023/12/16 10:18:06;;;;;;;13.43;3.55;;;8.50;99.90;;;;;;5017687;28;20033;-46
2023/12/16 10:20:31;;;;;;;14.43;5.47;;;8.70;99.90;;;;;;5017717;28;20053;-49
2023/12/16 10:23:01;;;;;;;12.50;4.32;;;8.70;99.90;;;;;;5017852;28;20033;-51
2023/12/16 10:25:29;;;;;;;7.25;3.22;;;8.80;99.90;;;;;;5019958;28;20357;-47
2023/12/16 10:28:00;;;;;;;7.88;2.83;;;8.80;99.90;;;;;;5019427;28;20435;-51
2023/12/16 10:30:26;;;;;;;25.65;11.05;;;8.90;99.90;;;;;;5018466;28;20391;-48
2023/12/16 10:32:57;;;;;;;26.02;9.73;;;8.90;99.90;;;;;;5018437;28;20030;-47
2023/12/16 10:35:23;;;;;;;31.35;12.52;;;9.00;99.90;;;;;;5017287;28;20116;-48
2023/12/16 10:37:50;;;;;;;26.67;9.95;;;8.90;99.90;;;;;;5017012;28;20537;-50
2023/12/16 10:40:16;;;;;;;16.50;6.57;;;8.80;99.90;;;;;;5019684;28;20060;-46
2023/12/16 10:42:45;;;;;;;18.67;5.55;;;8.80;99.90;;;;;;5019175;28;20068;-48
2023/12/16 10:45:12;;;;;;;10.60;3.42;;;8.80;99.90;;;;;;5018900;28;20494;-46
2023/12/16 10:47:38;;;;;;;10.63;2.72;;;8.90;99.90;;;;;;5019157;28;21197;-46
2023/12/16 10:50:06;;;;;;;21.73;5.57;;;8.80;99.90;;;;;;5020304;28;20057;-52
2023/12/16 10:52:37;;;;;;;36.15;12.10;;;8.80;99.90;;;;;;5023361;28;20070;-47
2023/12/16 10:55:05;;;;;;;28.80;6.82;;;8.80;99.90;;;;;;5021679;28;20535;-50
2023/12/16 10:57:44;;;;;;;7.95;2.70;;;8.80;99.90;;;;;;5023490;28;20033;-46
2023/12/16 11:00:13;;;;;;;12.88;3.85;;;8.80;99.90;;;;;;5017925;28;20470;-51
2023/12/16 11:03:04;;;;;;;18.00;4.70;;;8.90;99.90;;;;;;5017825;28;20041;-47
2023/12/16 11:05:34;;;;;;;16.85;3.65;;;9.00;99.90;;;;;;5022712;28;20108;-48
2023/12/16 11:08:04;;;;;;;20.90;8.80;;;9.00;99.90;;;;;;5020355;28;20033;-49
2023/12/16 11:10:33;;;;;;;25.25;11.35;;;9.10;99.90;;;;;;5017381;28;20061;-50
2023/12/16 11:13:03;;;;;;;16.30;6.45;;;9.30;99.90;;;;;;5019917;28;20525;-46
2023/12/16 11:15:31;;;;;;;37.78;18.00;;;9.40;99.90;;;;;;5026713;28;20017;-47
2023/12/16 11:18:02;;;;;;;17.13;6.70;;;9.50;99.90;;;;;;5018812;28;20428;-47
2023/12/16 11:20:37;;;;;;;19.80;3.45;;;9.50;99.90;;;;;;5015004;28;20042;-47
2023/12/16 11:23:03;;;;;;;21.35;6.10;;;9.60;99.90;;;;;;5020213;28;20041;-48
2023/12/16 11:25:33;;;;;;;16.60;6.75;;;9.70;99.90;;;;;;5023563;28;20436;-46
2023/12/16 11:28:01;;;;;;;13.88;3.55;;;9.80;99.90;;;;;;5021068;28;20200;-46
2023/12/16 11:30:29;;;;;;;16.42;5.35;;;9.90;99.90;;;;;;5019567;28;20025;-46
2023/12/16 11:32:55;;;;;;;19.15;7.07;;;10.00;99.90;;;;;;5020290;28;20033;-50
2023/12/16 11:35:51;;;;;;;12.38;3.67;;;10.00;99.90;;;;;;5016483;28;20490;-47
2023/12/16 11:38:34;;;;;;;12.52;4.00;;;10.00;99.90;;;;;;5006949;28;20547;-50
2023/12/16 11:41:00;;;;;;;15.35;4.35;;;10.00;99.90;;;;;;5018352;28;20099;-47
2023/12/16 11:43:51;;;;;;;11.05;4.45;;;9.90;99.90;;;;;;5016395;28;20038;-46
2023/12/16 11:46:39;;;;;;;22.05;6.00;;;9.90;99.90;;;;;;5016469;28;20022;-51
2023/12/16 11:49:10;;;;;;;19.08;5.40;;;9.90;99.90;;;;;;5020957;28;20103;-50
2023/12/16 11:51:38;;;;;;;18.35;4.78;;;9.80;99.90;;;;;;5019010;28;20053;-56
2023/12/16 11:54:05;;;;;;;11.02;2.78;;;9.80;99.90;;;;;;5020191;28;20447;-58
2023/12/16 11:56:31;;;;;;;9.65;2.78;;;9.80;99.90;;;;;;5023086;28;20060;-56
2023/12/16 11:58:59;;;;;;;9.70;2.10;;;9.80;99.90;;;;;;5018643;28;20053;-56
2023/12/16 12:01:31;;;;;;;25.00;2.80;;;9.80;99.90;;;;;;5019686;28;20111;-56
2023/12/16 12:03:57;;;;;;;16.73;4.78;;;9.80;99.90;;;;;;5018039;28;20021;-58
2023/12/16 12:06:24;;;;;;;16.45;5.43;;;9.70;99.90;;;;;;5015977;28;20017;-57
2023/12/16 12:08:50;;;;;;;52.55;17.08;;;9.70;99.90;;;;;;5016749;28;21369;-58
2023/12/16 12:11:17;;;;;;;36.42;12.48;;;9.80;99.90;;;;;;5016982;28;20496;-54
2023/12/16 12:13:46;;;;;;;54.80;18.08;;;9.80;99.90;;;;;;5016709;28;20033;-57
2023/12/16 12:16:12;;;;;;;31.38;11.73;;;9.80;99.90;;;;;;5014071;28;20521;-59
2023/12/16 12:18:40;;;;;;;26.80;11.55;;;9.80;99.90;;;;;;5017492;28;20034;-59
2023/12/16 12:21:07;;;;;;;31.38;12.88;;;9.80;99.90;;;;;;5015215;28;20118;-57
2023/12/16 12:23:33;;;;;;;27.17;7.43;;;9.70;99.90;;;;;;5016775;28;20037;-58
2023/12/16 12:26:00;;;;;;;18.63;7.65;;;9.70;99.90;;;;;;5014858;28;20037;-56
2023/12/16 12:28:26;;;;;;;19.15;5.97;;;9.70;99.90;;;;;;5016816;28;20061;-57
2023/12/16 12:31:07;;;;;;;19.88;7.68;;;9.70;99.90;;;;;;5016181;28;20096;-56
2023/12/16 12:33:33;;;;;;;39.15;13.68;;;9.60;99.90;;;;;;5016904;28;20026;-54
2023/12/16 12:35:59;;;;;;;43.22;16.25;;;9.50;99.90;;;;;;5015454;28;20026;-55
2023/12/16 12:38:27;;;;;;;24.83;7.45;;;9.50;99.90;;;;;;5019268;28;20503;-55
2023/12/16 12:41:04;;;;;;;24.42;8.27;;;9.50;99.90;;;;;;5015406;28;20030;-58
2023/12/16 12:43:35;;;;;;;28.42;9.95;;;9.40;99.90;;;;;;5015762;28;20041;-57
2023/12/16 12:46:08;;;;;;;17.83;4.03;;;9.40;99.90;;;;;;5015422;28;20095;-55
2023/12/16 12:48:38;;;;;;;20.48;5.00;;;9.50;99.90;;;;;;5016539;28;20021;-55